AA3292 / N712SK 7700 Squawk Report (12th of January, 2021)

Aircraft CRJ7 Reg No. N712SK Age 16 years old
Model Regional-Jet Jet engines 2 First flight 05-10-04
Registered 03-11-16 Rollout 09-04 Delivered 19-10-04
Construction No. 10172 Line No. N/A Series 700
ADSHEX A98515 Airline name Envoy Air Owner SkyWest Airlines
Airfield based Chicago O`Hare~IL~N First tracked N/A

Flight history for N712SK

Route Flight No Date Playback
Dallas Fort Worth (DFW) - Aspen - Pitkin County Airport (ASE) AA3044 2021-03-02 17:09:00
Piedmont Triad (GSO) - Dallas Fort Worth (DFW) AA3013 2021-03-02 14:48:00
Dallas Fort Worth (DFW) - Piedmont Triad (GSO) AA3012 2021-03-02 04:23:00
Lubbock Preston Smith Intl (LBB) - Dallas Fort Worth (DFW) AA3091 2021-03-02 00:52:00
Dallas Fort Worth (DFW) - Lubbock Preston Smith Intl (LBB) AA3113 2021-03-01 21:45:00
Aspen - Pitkin County Airport (ASE) - Dallas Fort Worth (DFW) AA3169 2021-03-01 19:41:00
Dallas Fort Worth (DFW) - Aspen - Pitkin County Airport (ASE) AA3250 2021-03-01 18:02:00
???? AA2961 2021-03-01 03:31:00
Dallas Fort Worth (DFW) - Aspen - Pitkin County Airport (ASE) AA3124 2021-03-01 00:04:00
Aspen - Pitkin County Airport (ASE) - Dallas Fort Worth (DFW) AA2988 2021-02-28 21:09:00
Dallas Fort Worth (DFW) - Aspen - Pitkin County Airport (ASE) AA3018 2021-02-28 01:59:00
Grand Junction Regional (GJT) - Dallas Fort Worth (DFW) N/A 2021-02-27 23:30:00
Dallas Fort Worth (DFW) - Aspen - Pitkin County Airport (ASE) AA3044 2021-02-27 20:53:00
Dallas Fort Worth (DFW) - Des Moines Intl (DSM) - Dallas Fort Worth (DFW) AA3040 2021-02-27 02:01:00
Dallas Fort Worth (DFW) - Will Rogers World (OKC) - Dallas Fort Worth (DFW) AA3052 2021-02-26 21:12:00
Salt Lake City Intl (SLC) - Phoenix Sky Harbor Intl (PHX) AS6001 2021-02-26 19:43:00
Will Rogers World (OKC) - Dallas Fort Worth (DFW) N/A 2021-02-26 17:28:00
Chicago Ohare Intl (ORD) - Will Rogers World (OKC) AA3020 2021-02-25 21:51:00
Chicago Ohare Intl (ORD) - Detroit Metro Wayne Co (DTW) - Chicago Ohare Intl (ORD) AA2972 2021-02-25 18:13:00
Manchester-Boston Regional Airport (MHT) - Chicago Ohare Intl (ORD) AA3294 2021-02-25 14:41:00
Time Lat Lon Altitude Heading Speed Vertical Rate
2021-01-12 22:40:31 GMT 39.855961 -104.674881 0 90 21 0
2021-01-12 22:40:30 GMT 39.855961 -104.675003 0 90 21 0
2021-01-12 22:40:29 GMT 39.855961 -104.675133 0 90 21 0
2021-01-12 22:40:27 GMT 39.855949 -104.675362 0 90 21 0
2021-01-12 22:40:26 GMT 39.855999 -104.675613 0 87 18 0
2021-01-12 22:40:25 GMT 39.855999 -104.675728 0 87 18 0
2021-01-12 22:40:23 GMT 39.856010 -104.675957 0 85 18 0
2021-01-12 22:40:22 GMT 39.855991 -104.676071 0 89 18 0
2021-01-12 22:40:21 GMT 39.855949 -104.676163 0 91 18 0
2021-01-12 22:40:20 GMT 39.855949 -104.676270 0 91 18 0
2021-01-12 22:40:18 GMT 39.855942 -104.676468 0 92 19 0
2021-01-12 22:40:17 GMT 39.855949 -104.676567 0 91 21 0
2021-01-12 22:40:16 GMT 39.855942 -104.676697 0 91 21 0
2021-01-12 22:40:15 GMT 39.855942 -104.676949 0 96 19 0
2021-01-12 22:40:13 GMT 39.855949 -104.677048 0 96 19 0
2021-01-12 22:40:12 GMT 39.855961 -104.677162 0 97 19 0
2021-01-12 22:40:11 GMT 39.855949 -104.677238 0 97 22 0
2021-01-12 22:40:09 GMT 39.856071 -104.677620 0 82 17 0
2021-01-12 22:40:08 GMT 39.856071 -104.677727 0 81 16 0
2021-01-12 22:40:07 GMT 39.856049 -104.677841 0 81 15 0
2021-01-12 22:40:06 GMT 39.856049 -104.677948 0 80 15 0
2021-01-12 22:40:04 GMT 39.856010 -104.678207 0 88 16 0
2021-01-12 22:40:02 GMT 39.855991 -104.678299 0 91 16 0
2021-01-12 22:40:01 GMT 39.856010 -104.678391 0 88 16 0
2021-01-12 22:40:00 GMT 39.855999 -104.678467 0 87 17 0
2021-01-12 22:39:58 GMT 39.855991 -104.678688 0 88 17 0
2021-01-12 22:39:57 GMT 39.855980 -104.678810 0 88 16 0
2021-01-12 22:39:56 GMT 39.855991 -104.678917 0 88 15 0
2021-01-12 22:39:54 GMT 39.855991 -104.679077 0 87 17 0
2021-01-12 22:39:53 GMT 39.855968 -104.679169 0 92 17 0
2021-01-12 22:39:52 GMT 39.855949 -104.679260 0 97 18 0
2021-01-12 22:39:51 GMT 39.855961 -104.679359 0 95 18 0
2021-01-12 22:39:50 GMT 39.855999 -104.679588 0 91 17 0
2021-01-12 22:39:48 GMT 39.855961 -104.679688 0 102 16 0
2021-01-12 22:39:47 GMT 39.855999 -104.679817 0 98 14 0
2021-01-12 22:39:46 GMT 39.856010 -104.679962 0 102 15 0
2021-01-12 22:39:44 GMT 39.856022 -104.680077 0 106 13 0
2021-01-12 22:39:43 GMT 39.856010 -104.680161 0 112 19 0
2021-01-12 22:39:41 GMT 39.856071 -104.680298 0 110 16 0
2021-01-12 22:39:40 GMT 39.856098 -104.680412 0 118 14 0
2021-01-12 22:39:38 GMT 39.856129 -104.680542 0 116 15 0
2021-01-12 22:39:37 GMT 39.856171 -104.680618 0 116 16 0
2021-01-12 22:39:36 GMT 39.856220 -104.680779 0 122 17 0
2021-01-12 22:39:34 GMT 39.856270 -104.680870 0 121 17 0
2021-01-12 22:39:33 GMT 39.856281 -104.680946 0 129 19 0
2021-01-12 22:39:32 GMT 39.856331 -104.681053 0 131 18 0
2021-01-12 22:39:31 GMT 39.856441 -104.681198 0 128 18 0
2021-01-12 22:39:29 GMT 39.856480 -104.681297 0 130 18 0
2021-01-12 22:39:28 GMT 39.856541 -104.681358 0 125 19 0
2021-01-12 22:39:26 GMT 39.856640 -104.681549 0 122 17 0
2021-01-12 22:39:25 GMT 39.856682 -104.681641 0 121 17 0
2021-01-12 22:39:24 GMT 39.856781 -104.681839 0 106 13 0
2021-01-12 22:39:22 GMT 39.856819 -104.681900 0 101 14 0
2021-01-12 22:39:21 GMT 39.856831 -104.681961 0 98 16 0
2021-01-12 22:39:20 GMT 39.856850 -104.682137 0 94 16 0
2021-01-12 22:39:18 GMT 39.856880 -104.682243 0 86 15 0
2021-01-12 22:39:17 GMT 39.856869 -104.682343 0 87 15 0
2021-01-12 22:39:16 GMT 39.856838 -104.682503 0 98 16 0
2021-01-12 22:39:14 GMT 39.856861 -104.682617 0 94 14 0
2021-01-12 22:39:13 GMT 39.856899 -104.682732 0 81 12 0
2021-01-12 22:39:12 GMT 39.856869 -104.682770 0 88 15 0
2021-01-12 22:39:10 GMT 39.856861 -104.682938 0 92 16 0
2021-01-12 22:39:09 GMT 39.856850 -104.683029 0 98 17 0
2021-01-12 22:39:08 GMT 39.856892 -104.683121 0 86 18 0
2021-01-12 22:39:06 GMT 39.856869 -104.683327 0 89 16 0
2021-01-12 22:39:05 GMT 39.856869 -104.683418 0 91 17 0
2021-01-12 22:39:04 GMT 39.856869 -104.683502 0 89 19 0
2021-01-12 22:39:03 GMT 39.856869 -104.683617 0 90 19 0
2021-01-12 22:39:01 GMT 39.856869 -104.683884 0 89 16 0
2021-01-12 22:39:00 GMT 39.856880 -104.683960 0 85 19 0
2021-01-12 22:38:59 GMT 39.856880 -104.684059 0 82 20 0
2021-01-12 22:38:58 GMT 39.856869 -104.684303 0 91 17 0
2021-01-12 22:38:56 GMT 39.856850 -104.684380 0 102 18 0
2021-01-12 22:38:55 GMT 39.856861 -104.684479 0 107 18 0
2021-01-12 22:38:54 GMT 39.856880 -104.684547 0 111 19 0
2021-01-12 22:38:52 GMT 39.856930 -104.684792 0 132 16 0
2021-01-12 22:38:51 GMT 39.856991 -104.684891 0 141 14 0
2021-01-12 22:38:50 GMT 39.857029 -104.684959 0 155 14 0
2021-01-12 22:38:48 GMT 39.857109 -104.685051 0 169 19 0
2021-01-12 22:38:47 GMT 39.857189 -104.685089 0 176 19 0
2021-01-12 22:38:46 GMT 39.857269 -104.685120 0 180 20 0
2021-01-12 22:38:45 GMT 39.857471 -104.685112 0 179 17 0
2021-01-12 22:38:43 GMT 39.857529 -104.685120 0 182 20 0
2021-01-12 22:38:42 GMT 39.857578 -104.685112 0 181 25 0
2021-01-12 22:38:41 GMT 39.857819 -104.685120 0 182 21 0
2021-01-12 22:38:39 GMT 39.857922 -104.685127 0 184 22 0
2021-01-12 22:38:38 GMT 39.858028 -104.685120 0 184 21 0
2021-01-12 22:38:37 GMT 39.858131 -104.685066 0 174 20 0
2021-01-12 22:38:35 GMT 39.858318 -104.685097 0 179 20 0
2021-01-12 22:38:34 GMT 39.858391 -104.685097 0 178 22 0
2021-01-12 22:38:33 GMT 39.858490 -104.685097 0 178 23 0
2021-01-12 22:38:32 GMT 39.858601 -104.685143 0 186 23 0
2021-01-12 22:38:31 GMT 39.858829 -104.685089 0 180 19 0
2021-01-12 22:38:29 GMT 39.858898 -104.685066 0 175 22 0
2021-01-12 22:38:28 GMT 39.859001 -104.685081 0 176 22 0
2021-01-12 22:38:26 GMT 39.859230 -104.685143 0 186 20 0
2021-01-12 22:38:25 GMT 39.859322 -104.685112 0 182 20 0
2021-01-12 22:38:24 GMT 39.859489 -104.685089 0 178 22 0
2021-01-12 22:38:23 GMT 39.859589 -104.685112 0 182 23 0
2021-01-12 22:38:21 GMT 39.859699 -104.685089 0 180 21 0
2021-01-12 22:38:20 GMT 39.859810 -104.685089 0 180 20 0
2021-01-12 22:38:18 GMT 39.859989 -104.685081 0 181 22 0
2021-01-12 22:38:17 GMT 39.860088 -104.685081 0 180 22 0
2021-01-12 22:38:16 GMT 39.860210 -104.685066 0 178 20 0
2021-01-12 22:38:14 GMT 39.860390 -104.685066 0 176 21 0
2021-01-12 22:38:13 GMT 39.860481 -104.685097 0 181 21 0
2021-01-12 22:38:12 GMT 39.860592 -104.685120 0 186 21 0
2021-01-12 22:38:11 GMT 39.860760 -104.685089 0 183 22 0
2021-01-12 22:38:09 GMT 39.860851 -104.685059 0 179 24 0
2021-01-12 22:38:08 GMT 39.860970 -104.685081 0 182 23 0
2021-01-12 22:38:07 GMT 39.861069 -104.685051 0 176 22 0
2021-01-12 22:38:05 GMT 39.861259 -104.685066 0 181 22 0
2021-01-12 22:38:04 GMT 39.861469 -104.685043 0 173 23 0
2021-01-12 22:38:02 GMT 39.861568 -104.685089 0 182 24 0
2021-01-12 22:38:01 GMT 39.861691 -104.685066 0 179 22 0
2021-01-12 22:38:00 GMT 39.861889 -104.685081 0 181 23 0
2021-01-12 22:37:58 GMT 39.862000 -104.685089 0 184 23 0
2021-01-12 22:37:57 GMT 39.862110 -104.685059 0 180 22 0
2021-01-12 22:37:56 GMT 39.862209 -104.685051 0 177 23 0
2021-01-12 22:37:55 GMT 39.862320 -104.685059 0 179 24 0
2021-01-12 22:37:53 GMT 39.862541 -104.685089 0 185 22 0
2021-01-12 22:37:52 GMT 39.862640 -104.685066 0 183 21 0
2021-01-12 22:37:51 GMT 39.862751 -104.685059 0 181 21 0
2021-01-12 22:37:49 GMT 39.862942 -104.685051 0 180 20 0
2021-01-12 22:37:48 GMT 39.863041 -104.685066 0 184 21 0
2021-01-12 22:37:47 GMT 39.863129 -104.685020 0 174 20 0
2021-01-12 22:37:46 GMT 39.863220 -104.685028 0 173 21 0
2021-01-12 22:37:44 GMT 39.863430 -104.685097 0 181 20 0
2021-01-12 22:37:43 GMT 39.863522 -104.685112 0 185 21 0
2021-01-12 22:37:42 GMT 39.863609 -104.685089 0 183 21 0
2021-01-12 22:37:40 GMT 39.863800 -104.685059 0 181 20 0
2021-01-12 22:37:39 GMT 39.863899 -104.685059 0 183 20 0
2021-01-12 22:37:38 GMT 39.863979 -104.685043 0 182 21 0
2021-01-12 22:37:37 GMT 39.864090 -104.685043 0 183 19 0
2021-01-12 22:37:35 GMT 39.864269 -104.685013 0 175 21 0
2021-01-12 22:37:34 GMT 39.864368 -104.685028 0 178 20 0
2021-01-12 22:37:33 GMT 39.864460 -104.685043 0 180 21 0
2021-01-12 22:37:32 GMT 39.864559 -104.685059 0 184 21 0
2021-01-12 22:37:31 GMT 39.864651 -104.685051 0 184 21 0
2021-01-12 22:37:30 GMT 39.864849 -104.685028 0 183 21 0
2021-01-12 22:37:28 GMT 39.864948 -104.684998 0 177 20 0
2021-01-12 22:37:27 GMT 39.865040 -104.684998 0 176 20 0
2021-01-12 22:37:26 GMT 39.865131 -104.685013 0 175 21 0
2021-01-12 22:37:24 GMT 39.865311 -104.685020 0 177 22 0
2021-01-12 22:37:23 GMT 39.865540 -104.685020 0 177 19 0
2021-01-12 22:37:21 GMT 39.865631 -104.685059 0 187 20 0
2021-01-12 22:37:20 GMT 39.865711 -104.685043 0 184 21 0
2021-01-12 22:37:19 GMT 39.865799 -104.685013 0 178 22 0
2021-01-12 22:37:18 GMT 39.866009 -104.685013 0 178 21 0
2021-01-12 22:37:16 GMT 39.866100 -104.685020 0 182 22 0
2021-01-12 22:37:15 GMT 39.866199 -104.685013 0 179 21 0
2021-01-12 22:37:14 GMT 39.866322 -104.685013 0 179 18 0
2021-01-12 22:37:13 GMT 39.866489 -104.684998 0 178 21 0
2021-01-12 22:37:11 GMT 39.866589 -104.684998 0 178 21 0
2021-01-12 22:37:10 GMT 39.866680 -104.685020 0 181 21 0
2021-01-12 22:37:08 GMT 39.866890 -104.685043 0 187 19 0
2021-01-12 22:37:07 GMT 39.866951 -104.684998 0 180 22 0
2021-01-12 22:37:06 GMT 39.867069 -104.684998 0 182 19 0
2021-01-12 22:37:04 GMT 39.867229 -104.684998 0 181 23 0
2021-01-12 22:37:03 GMT 39.867458 -104.684998 0 181 19 0
2021-01-12 22:37:01 GMT 39.867550 -104.684990 0 181 19 0
2021-01-12 22:37:00 GMT 39.867630 -104.684998 0 182 20 0
2021-01-12 22:36:59 GMT 39.867729 -104.684990 0 182 19 0
2021-01-12 22:36:57 GMT 39.867889 -104.684959 0 174 21 0
2021-01-12 22:36:56 GMT 39.868011 -104.684982 0 176 19 0
2021-01-12 22:36:55 GMT 39.868092 -104.684998 0 181 20 0
2021-01-12 22:36:53 GMT 39.868271 -104.684990 0 183 20 0
2021-01-12 22:36:52 GMT 39.868370 -104.684982 0 182 20 0
2021-01-12 22:36:51 GMT 39.868469 -104.684959 0 178 19 0
2021-01-12 22:36:49 GMT 39.868622 -104.684982 0 182 21 0
2021-01-12 22:36:48 GMT 39.868729 -104.684967 0 182 20 0
2021-01-12 22:36:47 GMT 39.868820 -104.684982 0 184 21 0
2021-01-12 22:36:45 GMT 39.869030 -104.684952 0 177 19 0
2021-01-12 22:36:44 GMT 39.869110 -104.684959 0 177 20 0
2021-01-12 22:36:42 GMT 39.869270 -104.684967 0 178 22 0
2021-01-12 22:36:41 GMT 39.869389 -104.684959 0 175 19 0
2021-01-12 22:36:40 GMT 39.869469 -104.684998 0 182 20 0
2021-01-12 22:36:38 GMT 39.869671 -104.684982 0 179 18 0
2021-01-12 22:36:37 GMT 39.869759 -104.684982 0 179 17 0
2021-01-12 22:36:36 GMT 39.869850 -104.684982 0 180 16 0
2021-01-12 22:36:35 GMT 39.869999 -104.684982 0 181 19 0
2021-01-12 22:36:33 GMT 39.870079 -104.684982 0 184 19 0
2021-01-12 22:36:32 GMT 39.870159 -104.684982 0 183 22 0
2021-01-12 22:36:30 GMT 39.870361 -104.684967 0 182 20 0
2021-01-12 22:36:29 GMT 39.870461 -104.684959 0 182 19 0
2021-01-12 22:36:28 GMT 39.870571 -104.684959 0 182 16 0
2021-01-12 22:36:27 GMT 39.870640 -104.684937 0 178 15 0
2021-01-12 22:36:25 GMT 39.870770 -104.684929 0 177 19 0
2021-01-12 22:36:24 GMT 39.870880 -104.684967 0 184 17 0
2021-01-12 22:36:23 GMT 39.870960 -104.684952 0 180 15 0
2021-01-12 22:36:21 GMT 39.871090 -104.684959 0 186 19 0
2021-01-12 22:36:20 GMT 39.871189 -104.684952 0 185 17 0
2021-01-12 22:36:19 GMT 39.871330 -104.684891 0 171 19 0
2021-01-12 22:36:17 GMT 39.871422 -104.684921 0 176 17 0
2021-01-12 22:36:16 GMT 39.871510 -104.684952 0 180 16 0
2021-01-12 22:36:15 GMT 39.871590 -104.684952 0 180 16 0
2021-01-12 22:36:13 GMT 39.871738 -104.684929 0 176 16 0
2021-01-12 22:36:12 GMT 39.871811 -104.684929 0 174 16 0
2021-01-12 22:36:11 GMT 39.871960 -104.684937 0 174 17 0
2021-01-12 22:36:09 GMT 39.872051 -104.684967 0 180 17 0
2021-01-12 22:36:08 GMT 39.872131 -104.684998 0 190 16 0
2021-01-12 22:36:07 GMT 39.872211 -104.684967 0 186 14 0
2021-01-12 22:36:06 GMT 39.872341 -104.684937 0 180 16 0
2021-01-12 22:36:04 GMT 39.872410 -104.684937 0 182 15 0
2021-01-12 22:36:03 GMT 39.872490 -104.684937 0 182 15 0
2021-01-12 22:36:02 GMT 39.872559 -104.684937 0 186 14 0
2021-01-12 22:36:00 GMT 39.872681 -104.684891 0 172 16 0
2021-01-12 22:35:59 GMT 39.872730 -104.684914 0 174 20 0
2021-01-12 22:35:58 GMT 39.872841 -104.684929 0 177 17 0
2021-01-12 22:35:57 GMT 39.873009 -104.684929 0 175 14 0
2021-01-12 22:35:55 GMT 39.873089 -104.684929 0 177 14 0
2021-01-12 22:35:54 GMT 39.873150 -104.684952 0 182 14 0
2021-01-12 22:35:52 GMT 39.873291 -104.684952 0 188 14 0
2021-01-12 22:35:51 GMT 39.873348 -104.684914 0 181 15 0
2021-01-12 22:35:50 GMT 39.873428 -104.684914 0 181 14 0
2021-01-12 22:35:48 GMT 39.873562 -104.684883 0 170 14 0
2021-01-12 22:35:47 GMT 39.873619 -104.684914 0 174 14 0
2021-01-12 22:35:46 GMT 39.873680 -104.684929 0 183 15 0
2021-01-12 22:35:45 GMT 39.873829 -104.684914 0 178 14 0
2021-01-12 22:35:43 GMT 39.873901 -104.684929 0 184 13 0
2021-01-12 22:35:41 GMT 39.874020 -104.684921 0 187 14 0
2021-01-12 22:35:40 GMT 39.874100 -104.684914 0 183 12 0
2021-01-12 22:35:39 GMT 39.874149 -104.684891 0 178 12 0
2021-01-12 22:35:38 GMT 39.874199 -104.684868 0 173 13 0
2021-01-12 22:35:37 GMT 39.874310 -104.684883 0 174 14 0
2021-01-12 22:35:35 GMT 39.874378 -104.684914 0 183 13 0
2021-01-12 22:35:34 GMT 39.874439 -104.684937 0 189 14 0
2021-01-12 22:35:32 GMT 39.874561 -104.684914 0 182 15 0
2021-01-12 22:35:31 GMT 39.874630 -104.684883 0 174 15 0
2021-01-12 22:35:30 GMT 39.874710 -104.684891 0 176 14 0
2021-01-12 22:35:29 GMT 39.874828 -104.684914 0 178 14 0
2021-01-12 22:35:27 GMT 39.874901 -104.684883 0 166 14 0
2021-01-12 22:35:26 GMT 39.874962 -104.684898 0 167 13 0
2021-01-12 22:35:25 GMT 39.875092 -104.684937 0 171 12 0
2021-01-12 22:35:23 GMT 39.875149 -104.684952 0 163 11 0
2021-01-12 22:35:22 GMT 39.875210 -104.684952 0 160 10 0
2021-01-12 22:35:21 GMT 39.875252 -104.684967 0 164 10 0
2021-01-12 22:35:20 GMT 39.875278 -104.684982 0 164 11 0
2021-01-12 22:35:18 GMT 39.875389 -104.685020 0 161 11 0
2021-01-12 22:35:17 GMT 39.875439 -104.685028 0 162 9 0
2021-01-12 22:35:16 GMT 39.875488 -104.685066 0 164 8 0
2021-01-12 22:35:14 GMT 39.875561 -104.685081 0 146 8 0
2021-01-12 22:35:13 GMT 39.875599 -104.685089 0 143 7 0
2021-01-12 22:35:12 GMT 39.875629 -104.685120 0 148 6 0
2021-01-12 22:35:11 GMT 39.875660 -104.685150 0 149 5 0
2021-01-12 22:35:09 GMT 39.875702 -104.685173 0 138 5 0
2021-01-12 22:35:08 GMT 39.875729 -104.685204 0 137 4 0
2021-01-12 22:35:07 GMT 39.875759 -104.685211 0 138 4 0
2021-01-12 22:35:05 GMT 39.875790 -104.685257 0 141 2 0
2021-01-12 22:35:04 GMT 39.875790 -104.685280 0 141 2 0
2021-01-12 22:35:02 GMT 39.875820 -104.685303 0 140 0 0
2021-01-12 22:35:00 GMT 39.875820 -104.685280 0 140 1 0
2021-01-12 22:34:59 GMT 39.875832 -104.685333 0 139 2 0
2021-01-12 22:34:56 GMT 39.875839 -104.685272 0 137 0 0
2021-01-12 22:34:55 GMT 39.875839 -104.685287 0 137 0 0
2021-01-12 22:34:53 GMT 39.875870 -104.685318 0 134 0 0
2021-01-12 22:34:52 GMT 39.875851 -104.685310 0 134 0 0
2021-01-12 22:34:40 GMT 39.875839 -104.685272 0 134 0 0
2021-01-12 22:34:37 GMT 39.875839 -104.685280 0 134 0 0
2021-01-12 22:34:35 GMT 39.875839 -104.685287 0 134 0 0
2021-01-12 22:34:34 GMT 39.875839 -104.685280 0 129 0 0
2021-01-12 22:34:32 GMT 39.875839 -104.685257 0 128 1 0
2021-01-12 22:34:30 GMT 39.875832 -104.685272 0 128 1 0
2021-01-12 22:34:29 GMT 39.875839 -104.685272 0 128 0 0
2021-01-12 22:34:28 GMT 39.875851 -104.685287 0 128 1 0
2021-01-12 22:34:26 GMT 39.875858 -104.685280 0 139 3 0
2021-01-12 22:34:25 GMT 39.875851 -104.685272 0 146 2 0
2021-01-12 22:34:24 GMT 39.875832 -104.685280 0 148 0 0
2021-01-12 22:34:22 GMT 39.875801 -104.685272 0 152 5 0
2021-01-12 22:34:21 GMT 39.875820 -104.685280 0 152 6 0
2021-01-12 22:34:20 GMT 39.875832 -104.685272 0 147 10 0
2021-01-12 22:34:19 GMT 39.875889 -104.685318 0 150 13 0
2021-01-12 22:34:17 GMT 39.875931 -104.685349 0 150 15 0
2021-01-12 22:34:16 GMT 39.875980 -104.685402 0 151 15 0
2021-01-12 22:34:15 GMT 39.876049 -104.685432 0 146 15 0
2021-01-12 22:34:13 GMT 39.876160 -104.685539 0 152 15 0
2021-01-12 22:34:12 GMT 39.876228 -104.685593 0 153 15 0
2021-01-12 22:34:11 GMT 39.876339 -104.685654 0 149 17 0
2021-01-12 22:34:09 GMT 39.876400 -104.685699 0 151 18 0
2021-01-12 22:34:08 GMT 39.876469 -104.685753 0 151 19 0
2021-01-12 22:34:06 GMT 39.876610 -104.685860 0 149 20 0
2021-01-12 22:34:05 GMT 39.876690 -104.685913 0 148 20 0
2021-01-12 22:34:04 GMT 39.876759 -104.685959 0 150 22 0
2021-01-12 22:34:02 GMT 39.876930 -104.686089 0 152 23 0
2021-01-12 22:34:00 GMT 39.877129 -104.686218 0 154 21 0
2021-01-12 22:33:59 GMT 39.877220 -104.686249 0 152 23 0
2021-01-12 22:33:58 GMT 39.877289 -104.686302 0 153 26 0
2021-01-12 22:33:57 GMT 39.877392 -104.686401 0 161 26 0
2021-01-12 22:33:55 GMT 39.877621 -104.686508 0 164 27 0
2021-01-12 22:33:54 GMT 39.877739 -104.686562 0 166 27 0
2021-01-12 22:33:53 GMT 39.877850 -104.686592 0 163 29 0
2021-01-12 22:33:51 GMT 39.878101 -104.686699 0 167 31 0
2021-01-12 22:33:50 GMT 39.878262 -104.686722 0 163 30 0
2021-01-12 22:33:49 GMT 39.878540 -104.686829 0 167 30 0
2021-01-12 22:33:47 GMT 39.878670 -104.686890 0 171 32 0
2021-01-12 22:33:46 GMT 39.878849 -104.686928 0 173 30 0
2021-01-12 22:33:45 GMT 39.879131 -104.686989 0 178 35 0
2021-01-12 22:33:43 GMT 39.879299 -104.686981 0 178 36 0
2021-01-12 22:33:41 GMT 39.879631 -104.687019 0 181 42 0
2021-01-12 22:33:40 GMT 39.879810 -104.687012 0 181 46 0
2021-01-12 22:33:39 GMT 39.880032 -104.687012 0 181 48 0
2021-01-12 22:33:37 GMT 39.880470 -104.686974 0 179 55 0
2021-01-12 22:33:36 GMT 39.880699 -104.686981 0 180 60 0
2021-01-12 22:33:35 GMT 39.880981 -104.686974 5,225 179 63 96
2021-01-12 22:33:34 GMT 39.881248 -104.686996 5,225 181 67 96
2021-01-12 22:33:32 GMT 39.881859 -104.686981 5,225 181 74 96
2021-01-12 22:33:31 GMT 39.882191 -104.686951 5,225 180 77 96
2021-01-12 22:33:30 GMT 39.882912 -104.686943 5,225 179 81 -1824
2021-01-12 22:33:28 GMT 39.883270 -104.686951 5,225 180 84 -1824
2021-01-12 22:33:27 GMT 39.883659 -104.686958 5,225 181 86 -1824
2021-01-12 22:33:25 GMT 39.884472 -104.686974 5,225 182 90 -1632
2021-01-12 22:33:24 GMT 39.885300 -104.686882 5,225 179 98 -32
2021-01-12 22:33:22 GMT 39.885738 -104.686890 5,225 179 103 -32
2021-01-12 22:33:21 GMT 39.886200 -104.686913 5,225 180 106 -32
2021-01-12 22:33:19 GMT 39.887180 -104.686913 5,225 180 112 -32
2021-01-12 22:33:18 GMT 39.887691 -104.686897 5,225 181 114 -32
2021-01-12 22:33:17 GMT 39.888210 -104.686882 5,225 180 118 -32
2021-01-12 22:33:16 GMT 39.888721 -104.686867 5,225 180 123 32
2021-01-12 22:33:15 GMT 39.889839 -104.686852 5,225 179 128 32
2021-01-12 22:33:13 GMT 39.890430 -104.686859 5,225 180 129 32
2021-01-12 22:33:12 GMT 39.890991 -104.686852 5,225 180 133 32
2021-01-12 22:33:10 GMT 39.892208 -104.686836 5,225 180 136 -704
2021-01-12 22:33:09 GMT 39.892860 -104.686852 5,225 180 135 -704
2021-01-12 22:33:08 GMT 39.893452 -104.686852 5,225 181 138 -704
2021-01-12 22:33:06 GMT 39.894741 -104.686813 5,300 181 139 -704
2021-01-12 22:33:05 GMT 39.895359 -104.686768 5,300 179 140 -704
2021-01-12 22:33:04 GMT 39.896042 -104.686783 5,300 180 138 -704
2021-01-12 22:33:02 GMT 39.897339 -104.686768 5,300 179 138 -704
2021-01-12 22:33:01 GMT 39.897930 -104.686783 5,325 181 149 -704
2021-01-12 22:33:00 GMT 39.898659 -104.686760 5,325 181 142 -704
2021-01-12 22:32:59 GMT 39.899319 -104.686722 5,325 180 139 -704
2021-01-12 22:32:57 GMT 39.900589 -104.686729 5,375 181 136 -704
2021-01-12 22:32:56 GMT 39.901169 -104.686668 5,375 180 142 -704
2021-01-12 22:32:55 GMT 39.901791 -104.686653 5,375 179 146 -704
2021-01-12 22:32:53 GMT 39.903221 -104.686691 5,400 181 137 -704
2021-01-12 22:32:52 GMT 39.903851 -104.686668 5,425 180 138 -704
2021-01-12 22:32:51 GMT 39.904469 -104.686623 5,425 178 139 -704
2021-01-12 22:32:49 GMT 39.905781 -104.686684 5,425 181 139 -704
2021-01-12 22:32:48 GMT 39.906479 -104.686684 5,500 181 132 -704
2021-01-12 22:32:47 GMT 39.907051 -104.686638 5,475 180 137 -704
2021-01-12 22:32:45 GMT 39.908310 -104.686577 5,500 179 139 -704
2021-01-12 22:32:44 GMT 39.908939 -104.686592 5,500 179 141 -704
2021-01-12 22:32:43 GMT 39.910278 -104.686638 5,500 181 136 -704
2021-01-12 22:32:41 GMT 39.910881 -104.686607 5,525 182 139 -704
2021-01-12 22:32:40 GMT 39.911560 -104.686531 5,525 179 134 -704
2021-01-12 22:32:39 GMT 39.912159 -104.686592 5,550 182 136 -704
2021-01-12 22:32:37 GMT 39.913448 -104.686546 5,575 181 132 -704
2021-01-12 22:32:36 GMT 39.914040 -104.686562 5,600 182 135 -704
2021-01-12 22:32:35 GMT 39.914619 -104.686478 5,600 180 140 -704
2021-01-12 22:32:34 GMT 39.915340 -104.686447 5,600 179 131 -704
2021-01-12 22:32:32 GMT 39.916550 -104.686447 5,675 179 136 -704
2021-01-12 22:32:31 GMT 39.917229 -104.686501 5,675 181 132 -704
2021-01-12 22:32:30 GMT 39.917789 -104.686470 5,675 180 138 -704
2021-01-12 22:32:28 GMT 39.919060 -104.686470 5,800 180 141 -704
2021-01-12 22:32:27 GMT 39.919651 -104.686462 5,800 180 147 -704
2021-01-12 22:32:26 GMT 39.921089 -104.686470 5,800 180 134 -928
2021-01-12 22:32:24 GMT 39.921600 -104.686447 5,800 181 145 -928
2021-01-12 22:32:23 GMT 39.922249 -104.686417 5,800 180 146 -928
2021-01-12 22:32:22 GMT 39.922932 -104.686394 5,800 179 143 -928
2021-01-12 22:32:20 GMT 39.924271 -104.686432 5,800 182 141 -928
2021-01-12 22:32:19 GMT 39.924919 -104.686363 5,800 180 139 -928
2021-01-12 22:32:17 GMT 39.926208 -104.686348 5,900 181 140 -928
2021-01-12 22:32:16 GMT 39.926849 -104.686279 5,900 179 142 -928
2021-01-12 22:32:15 GMT 39.927559 -104.686317 5,950 181 137 -928
2021-01-12 22:32:14 GMT 39.928841 -104.686249 5,950 180 139 -928
2021-01-12 22:32:12 GMT 39.929489 -104.686287 5,950 181 139 -928
2021-01-12 22:32:11 GMT 39.930111 -104.686241 5,950 179 141 -928
2021-01-12 22:32:09 GMT 39.931419 -104.686256 5,950 181 144 -928
2021-01-12 22:32:08 GMT 39.932098 -104.686211 6,000 179 141 -928
2021-01-12 22:32:07 GMT 39.932800 -104.686211 6,000 179 138 -928
2021-01-12 22:32:05 GMT 39.934059 -104.686211 6,000 179 144 -928
2021-01-12 22:32:04 GMT 39.934681 -104.686256 6,000 181 150 -928
2021-01-12 22:32:03 GMT 39.935440 -104.686218 6,000 180 143 -928
2021-01-12 22:31:50 GMT 39.944054 -104.686287 6,175 180 140 -768
2021-01-12 22:31:42 GMT 39.949501 -104.686287 6,325 181 139 -960
2021-01-12 22:31:30 GMT 39.956223 -104.686218 6,450 179 139 -896
2021-01-12 22:31:25 GMT 39.960300 -104.686287 6,550 179 140 -960
2021-01-12 22:31:21 GMT 39.963142 -104.686348 6,650 181 141 -1024
2021-01-12 22:31:14 GMT 39.967117 -104.686279 6,725 181 142 -768
2021-01-12 22:31:10 GMT 39.969772 -104.686279 6,775 181 143 -704
2021-01-12 22:31:04 GMT 39.973846 -104.686226 6,825 181 144 -640
2021-01-12 22:31:00 GMT 39.976822 -104.686157 6,850 182 143 -256
2021-01-12 22:30:54 GMT 39.980320 -104.686035 6,875 179 182 -704
2021-01-12 22:30:48 GMT 39.983997 -104.685974 6,850 181 149 128
2021-01-12 22:30:41 GMT 39.989182 -104.685852 6,850 181 151 -64
2021-01-12 22:30:38 GMT 39.990978 -104.685852 6,850 181 156 -128
2021-01-12 22:30:33 GMT 39.994949 -104.685791 6,850 182 158 -192
2021-01-12 22:30:28 GMT 39.998383 -104.685722 6,875 181 161 -128
2021-01-12 22:30:17 GMT 40.006577 -104.685608 6,875 179 173 -64
2021-01-12 22:30:08 GMT 40.014999 -104.685669 6,950 179 184 -768
2021-01-12 22:29:57 GMT 40.023972 -104.685852 7,050 178 188 -704
2021-01-12 22:29:50 GMT 40.030243 -104.686035 7,125 178 190 -768
2021-01-12 22:29:46 GMT 40.033218 -104.686157 7,175 179 191 -768
2021-01-12 22:29:37 GMT 40.042465 -104.686348 7,375 179 197 -768
2021-01-12 22:29:25 GMT 40.052197 -104.686470 7,450 182 203 -704
2021-01-12 22:29:15 GMT 40.062744 -104.685913 7,550 184 209 -576
2021-01-12 22:29:05 GMT 40.072357 -104.684814 7,650 192 221 -576
2021-01-12 22:28:54 GMT 40.083244 -104.682106 7,700 203 223 -640
2021-01-12 22:28:45 GMT 40.092224 -104.676086 7,800 210 228 -384
2021-01-12 22:28:33 GMT 40.102432 -104.668579 7,850 211 236 -64
2021-01-12 22:28:24 GMT 40.112228 -104.660522 7,850 217 245 64
2021-01-12 22:28:12 GMT 40.120285 -104.649231 7,850 249 261 0
2021-01-12 22:28:04 GMT 40.124306 -104.636345 7,850 259 266 64
2021-01-12 22:28:01 GMT 40.124817 -104.632996 7,850 264 268 0
2021-01-12 22:27:51 GMT 40.124725 -104.616249 7,850 275 270 0
2021-01-12 22:27:41 GMT 40.123672 -104.600769 7,850 275 269 0
2021-01-12 22:27:32 GMT 40.122536 -104.583603 7,850 275 272 0
2021-01-12 22:27:21 GMT 40.121464 -104.566559 7,850 275 272 64
2021-01-12 22:27:10 GMT 40.120331 -104.549011 7,850 275 272 0
2021-01-12 22:27:02 GMT 40.119415 -104.534035 7,850 275 274 -64
2021-01-12 22:26:56 GMT 40.119003 -104.526245 7,875 275 274 -64
2021-01-12 22:26:51 GMT 40.118484 -104.517494 7,875 275 274 -128
2021-01-12 22:26:43 GMT 40.117767 -104.505127 7,900 275 274 -384
2021-01-12 22:26:37 GMT 40.117088 -104.493713 7,975 275 272 -1024
2021-01-12 22:26:27 GMT 40.116211 -104.478882 8,275 275 267 -1280
2021-01-12 22:26:23 GMT 40.115833 -104.472618 8,225 275 267 -1280
2021-01-12 22:26:19 GMT 40.115318 -104.463997 8,350 275 264 -1216
2021-01-12 22:26:15 GMT 40.115086 -104.460129 8,400 274 262 -1216
2021-01-12 22:26:07 GMT 40.114342 -104.446335 8,575 274 260 -1280
2021-01-12 22:26:03 GMT 40.114063 -104.439720 8,650 274 263 -1216
2021-01-12 22:25:58 GMT 40.113739 -104.433228 8,775 274 266 -960
2021-01-12 22:25:55 GMT 40.113464 -104.427124 8,800 274 267 -896
2021-01-12 22:25:48 GMT 40.112915 -104.414307 8,850 274 273 0
2021-01-12 22:25:45 GMT 40.112759 -104.411064 8,850 274 273 0
2021-01-12 22:25:36 GMT 40.112183 -104.396362 8,850 273 274 0
2021-01-12 22:25:27 GMT 40.111504 -104.379669 8,850 273 275 0
2021-01-12 22:25:14 GMT 40.110718 -104.359924 8,850 274 274 64
2021-01-12 22:25:10 GMT 40.110477 -104.354134 8,850 274 274 64
2021-01-12 22:25:06 GMT 40.110123 -104.346069 8,850 274 273 0
2021-01-12 22:24:54 GMT 40.109314 -104.327232 8,850 274 271 0
2021-01-12 22:24:45 GMT 40.108711 -104.311188 8,850 273 274 -64
2021-01-12 22:24:37 GMT 40.108200 -104.298157 8,850 273 274 0
2021-01-12 22:24:33 GMT 40.107964 -104.293030 8,850 273 273 0
2021-01-12 22:24:25 GMT 40.107422 -104.278076 8,850 273 272 0
2021-01-12 22:24:22 GMT 40.107361 -104.275299 8,850 272 271 -64
2021-01-12 22:24:13 GMT 40.107239 -104.258728 8,850 266 271 0
2021-01-12 22:24:03 GMT 40.108433 -104.242027 8,850 263 268 64
2021-01-12 22:23:50 GMT 40.110260 -104.223328 8,850 263 267 0
2021-01-12 22:23:42 GMT 40.111862 -104.208557 8,850 263 270 0
2021-01-12 22:23:30 GMT 40.113739 -104.191040 8,850 263 273 0
2021-01-12 22:23:21 GMT 40.115570 -104.173645 8,850 263 276 0
2021-01-12 22:23:09 GMT 40.117355 -104.156494 8,850 263 275 0
2021-01-12 22:22:59 GMT 40.119049 -104.139465 8,850 263 271 -64
2021-01-12 22:22:49 GMT 40.120880 -104.122192 8,875 262 272 -320
2021-01-12 22:22:37 GMT 40.122940 -104.103943 9,000 262 273 -832
2021-01-12 22:22:28 GMT 40.124817 -104.088097 9,150 261 273 -832
2021-01-12 22:22:19 GMT 40.126419 -104.075256 9,250 261 273 -896
2021-01-12 22:22:16 GMT 40.127098 -104.069862 9,300 261 273 -896
2021-01-12 22:22:07 GMT 40.129192 -104.053635 9,425 261 272 -832
2021-01-12 22:21:59 GMT 40.130730 -104.041588 9,525 260 272 -832
2021-01-12 22:21:56 GMT 40.131500 -104.036255 9,575 259 273 -832
2021-01-12 22:21:49 GMT 40.133568 -104.024483 9,675 252 278 -832
2021-01-12 22:21:46 GMT 40.134872 -104.019363 9,725 248 281 -832
2021-01-12 22:21:38 GMT 40.138783 -104.008194 9,800 242 286 0
2021-01-12 22:21:34 GMT 40.140785 -104.003258 9,850 242 287 -512
2021-01-12 22:21:25 GMT 40.147430 -103.987305 9,850 242 285 -64
2021-01-12 22:21:13 GMT 40.154099 -103.971054 9,850 242 284 0
2021-01-12 22:21:04 GMT 40.160664 -103.955070 9,850 242 283 0
2021-01-12 22:20:56 GMT 40.165604 -103.943176 9,850 242 282 0
2021-01-12 22:20:52 GMT 40.167206 -103.939270 9,850 242 281 64
2021-01-12 22:20:46 GMT 40.171188 -103.929749 9,850 242 280 0
2021-01-12 22:20:43 GMT 40.173660 -103.923767 9,850 242 279 0
2021-01-12 22:20:35 GMT 40.177654 -103.914124 9,850 242 279 -64
2021-01-12 22:20:31 GMT 40.180161 -103.908081 9,850 242 279 0
2021-01-12 22:20:26 GMT 40.184235 -103.898254 9,850 242 281 0
2021-01-12 22:20:22 GMT 40.186707 -103.892273 9,850 242 281 -64
2021-01-12 22:20:15 GMT 40.190456 -103.883163 9,850 242 282 64
2021-01-12 22:20:10 GMT 40.193390 -103.876038 9,850 242 283 64
2021-01-12 22:20:00 GMT 40.200165 -103.859558 9,850 242 280 64
2021-01-12 22:19:53 GMT 40.203506 -103.851501 9,850 242 280 64
2021-01-12 22:19:50 GMT 40.206516 -103.844147 9,850 242 281 -64
2021-01-12 22:19:43 GMT 40.209587 -103.836655 9,850 242 282 -64
2021-01-12 22:19:38 GMT 40.212849 -103.828850 9,850 242 284 0
2021-01-12 22:19:34 GMT 40.216141 -103.820801 9,850 242 285 64
2021-01-12 22:19:28 GMT 40.219227 -103.813370 9,850 242 284 0
2021-01-12 22:19:23 GMT 40.222641 -103.805054 9,850 242 283 0
2021-01-12 22:19:18 GMT 40.225571 -103.797791 9,850 242 281 -64
2021-01-12 22:19:08 GMT 40.232529 -103.780945 9,850 242 283 64
2021-01-12 22:19:00 GMT 40.237106 -103.769775 9,850 242 281 0
2021-01-12 22:18:57 GMT 40.238617 -103.766235 9,850 242 281 0
2021-01-12 22:18:47 GMT 40.245346 -103.749756 9,850 242 282 64
2021-01-12 22:18:36 GMT 40.251579 -103.734596 9,850 242 280 -64
2021-01-12 22:18:25 GMT 40.258530 -103.717651 9,875 242 284 -64
2021-01-12 22:18:14 GMT 40.265121 -103.701599 9,900 242 281 -384
2021-01-12 22:18:03 GMT 40.272125 -103.684448 10,000 242 284 -768
2021-01-12 22:17:54 GMT 40.277756 -103.670776 10,225 243 286 -1920
2021-01-12 22:17:44 GMT 40.284210 -103.654785 10,550 243 288 -1920
2021-01-12 22:17:33 GMT 40.290730 -103.638588 10,900 243 288 -1984
2021-01-12 22:17:21 GMT 40.298172 -103.620239 11,275 243 289 -1984
2021-01-12 22:17:11 GMT 40.303940 -103.606018 11,575 243 290 -1920
2021-01-12 22:17:00 GMT 40.310932 -103.588715 11,925 243 292 -1920
2021-01-12 22:16:50 GMT 40.317219 -103.573357 12,225 242 293 -1920
2021-01-12 22:16:39 GMT 40.325504 -103.553322 12,625 242 295 -1920
2021-01-12 22:16:30 GMT 40.331360 -103.539307 12,925 242 296 -1920
2021-01-12 22:16:19 GMT 40.337997 -103.523132 13,250 242 298 -1920
2021-01-12 22:16:09 GMT 40.345184 -103.505554 13,575 242 300 -1920
2021-01-12 22:15:57 GMT 40.351852 -103.489273 13,900 242 303 -1920
2021-01-12 22:15:48 GMT 40.358833 -103.472046 14,225 242 306 -1920
2021-01-12 22:15:37 GMT 40.365738 -103.455139 14,575 243 309 -1984
2021-01-12 22:15:27 GMT 40.372833 -103.437561 14,900 243 311 -1920
2021-01-12 22:15:15 GMT 40.379875 -103.419922 15,250 243 315 -1920
2021-01-12 22:15:05 GMT 40.387344 -103.401489 15,600 242 318 -1984
2021-01-12 22:14:54 GMT 40.394772 -103.383217 15,975 243 320 -2432
2021-01-12 22:14:43 GMT 40.402267 -103.364677 16,400 242 320 -2368
2021-01-12 22:14:34 GMT 40.409389 -103.347137 16,775 243 321 -2368
2021-01-12 22:14:22 GMT 40.416733 -103.329102 17,200 243 322 -2432
2021-01-12 22:14:12 GMT 40.423828 -103.311523 17,600 243 322 -2432
2021-01-12 22:14:02 GMT 40.431316 -103.293083 18,025 243 321 -2432
2021-01-12 22:13:51 GMT 40.438614 -103.274963 18,425 243 322 -2176
2021-01-12 22:13:41 GMT 40.445892 -103.256958 18,800 243 327 -2368
2021-01-12 22:13:31 GMT 40.453583 -103.237793 19,225 243 335 -2304
2021-01-12 22:13:19 GMT 40.462322 -103.216118 19,675 243 344 -2368
2021-01-12 22:13:08 GMT 40.469864 -103.197388 24,625 243 355 -2176
2021-01-12 22:12:58 GMT 40.478104 -103.177040 20,425 243 365 -2240
2021-01-12 22:12:45 GMT 40.487732 -103.152893 20,875 243 379 -2304
2021-01-12 22:12:36 GMT 40.495651 -103.132843 21,275 243 391 -2496
2021-01-12 22:12:26 GMT 40.504578 -103.110535 21,800 243 400 -3840
2021-01-12 22:12:17 GMT 40.512459 -103.090836 22,475 241 405 -4800
2021-01-12 22:12:14 GMT 40.513824 -103.087646 24,625 240 406 -4800
2021-01-12 22:12:05 GMT 40.525677 -103.066116 23,450 230 412 -4800
2021-01-12 22:11:53 GMT 40.539688 -103.045387 24,325 229 417 -4800
2021-01-12 22:11:50 GMT 40.544254 -103.038521 24,625 229 418 -4864
2021-01-12 22:11:44 GMT 40.551041 -103.028381 25,175 229 420 -4928
2021-01-12 22:11:41 GMT 40.555389 -103.021851 25,325 230 422 -4864
2021-01-12 22:11:31 GMT 40.568321 -103.002258 26,125 230 427 -4864
2021-01-12 22:11:23 GMT 40.579399 -102.985405 26,825 230 429 -4864
2021-01-12 22:11:20 GMT 40.581894 -102.981628 26,975 230 429 -4800
2021-01-12 22:11:11 GMT 40.594761 -102.961998 27,775 229 433 -4864
2021-01-12 22:11:04 GMT 40.604725 -102.947449 28,400 226 437 -4800
2021-01-12 22:10:59 GMT 40.609566 -102.941086 28,675 224 437 -4864
2021-01-12 22:10:50 GMT 40.624973 -102.925354 29,450 211 445 -4736
2021-01-12 22:10:45 GMT 40.634583 -102.918457 29,875 203 450 -4864
2021-01-12 22:10:42 GMT 40.639313 -102.915680 30,075 203 450 -4864
2021-01-12 22:10:39 GMT 40.645798 -102.912537 30,350 196 454 -4864
2021-01-12 22:10:36 GMT 40.650021 -102.910805 30,525 195 455 -4800
2021-01-12 22:10:29 GMT 40.666172 -102.906624 31,175 184 458 -4800
2021-01-12 22:10:22 GMT 40.679031 -102.905334 31,925 178 459 -4864
2021-01-12 22:10:19 GMT 40.689030 -102.905128 32,050 179 460 -4864
2021-01-12 22:10:16 GMT 40.694366 -102.905273 32,250 178 459 -4864
2021-01-12 22:10:12 GMT 40.703880 -102.906067 32,625 174 459 -4864
2021-01-12 22:10:08 GMT 40.710678 -102.906998 32,875 172 459 -4864
2021-01-12 22:10:04 GMT 40.719475 -102.908745 33,225 169 459 -4864
2021-01-12 22:10:00 GMT 40.728645 -102.911118 33,600 167 458 -4928
2021-01-12 22:09:55 GMT 40.738094 -102.914238 33,975 163 457 -4928
2021-01-12 22:09:50 GMT 40.747192 -102.917908 34,375 160 455 -4864
2021-01-12 22:09:47 GMT 40.753319 -102.920731 34,600 158 454 -4736
2021-01-12 22:09:43 GMT 40.762482 -102.925537 34,975 154 452 -4800
2021-01-12 22:09:40 GMT 40.768616 -102.929199 35,225 154 452 -4736
2021-01-12 22:09:35 GMT 40.776443 -102.934387 35,550 151 452 -4672
2021-01-12 22:09:32 GMT 40.781937 -102.938416 35,800 149 451 -4608
2021-01-12 22:09:26 GMT 40.792191 -102.946777 36,625 142 449 -3072
2021-01-12 22:09:22 GMT 40.800198 -102.954132 36,575 143 450 -3328
2021-01-12 22:09:19 GMT 40.804527 -102.958435 36,700 141 450 -2688
2021-01-12 22:09:15 GMT 40.811508 -102.965881 36,850 138 453 -1792
2021-01-12 22:09:11 GMT 40.818420 -102.973938 36,975 136 457 -832
2021-01-12 22:09:08 GMT 40.821331 -102.977539 37,000 135 458 -384
2021-01-12 22:09:05 GMT 40.826019 -102.983643 37,000 132 460 128
2021-01-12 22:09:00 GMT 40.836594 -102.999023 37,000 129 462 128
2021-01-12 22:08:57 GMT 40.836594 -102.999023 37,000 129 462 128
2021-01-12 22:08:54 GMT 40.841904 -103.007812 37,000 125 463 -64
2021-01-12 22:08:48 GMT 40.849682 -103.022423 37,000 122 464 -128
2021-01-12 22:08:43 GMT 40.854431 -103.032471 37,025 119 464 -64
2021-01-12 22:08:39 GMT 40.859344 -103.044128 37,000 116 465 0
2021-01-12 22:08:34 GMT 40.863693 -103.055847 37,000 113 466 -64
2021-01-12 22:08:31 GMT 40.865883 -103.062309 37,025 111 464 -128
2021-01-12 22:08:27 GMT 40.869652 -103.074913 37,025 109 463 -64
2021-01-12 22:08:23 GMT 40.872398 -103.085594 37,025 106 462 64
2021-01-12 22:08:18 GMT 40.876263 -103.104004 37,000 102 460 64
2021-01-12 22:08:15 GMT 40.876263 -103.104004 37,000 102 460 64
2021-01-12 22:08:12 GMT 40.878033 -103.114990 37,000 100 458 64
2021-01-12 22:08:04 GMT 40.880314 -103.135406 37,000 95 456 192
2021-01-12 22:08:00 GMT 40.881058 -103.147575 36,975 92 454 0
2021-01-12 22:07:56 GMT 40.881336 -103.160248 37,000 89 453 -64
2021-01-12 22:07:53 GMT 40.880917 -103.176788 37,000 85 449 -64
2021-01-12 22:07:45 GMT 40.879803 -103.192024 37,000 81 447 -64
2021-01-12 22:07:40 GMT 40.878845 -103.200378 37,000 79 446 -192
2021-01-12 22:07:35 GMT 40.876190 -103.217346 37,025 75 442 -64
2021-01-12 22:07:32 GMT 40.872494 -103.234718 37,025 73 440 -64
2021-01-12 22:07:24 GMT 40.870304 -103.243958 37,000 72 440 0
2021-01-12 22:07:20 GMT 40.867512 -103.255692 37,000 72 439 64
2021-01-12 22:07:14 GMT 40.863834 -103.271049 37,000 72 439 0
2021-01-12 22:07:11 GMT 40.862251 -103.277664 37,000 72 439 0
2021-01-12 22:07:03 GMT 40.857742 -103.296814 37,000 72 439 0
2021-01-12 22:07:00 GMT 40.855736 -103.305252 37,000 72 439 -64
2021-01-12 22:06:53 GMT 40.850941 -103.325165 37,000 72 438 0
2021-01-12 22:06:50 GMT 40.848888 -103.333778 37,000 72 438 0
2021-01-12 22:06:42 GMT 40.844841 -103.350639 37,000 72 439 64
2021-01-12 22:06:39 GMT 40.842957 -103.358521 37,000 72 439 0
2021-01-12 22:06:31 GMT 40.838516 -103.376892 37,000 72 439 0
2021-01-12 22:06:28 GMT 40.836456 -103.385559 37,000 72 439 0
2021-01-12 22:06:21 GMT 40.831787 -103.404907 37,000 72 439 0
2021-01-12 22:06:18 GMT 40.829361 -103.415100 37,000 72 439 64
2021-01-12 22:06:11 GMT 40.825615 -103.430664 37,000 72 438 0
2021-01-12 22:06:08 GMT 40.823891 -103.437775 37,000 72 438 -64
2021-01-12 22:06:01 GMT 40.819061 -103.457886 37,000 72 438 -64
2021-01-12 22:05:56 GMT 40.816452 -103.468567 37,000 72 438 -64
2021-01-12 22:05:49 GMT 40.812653 -103.484314 37,000 72 438 0
2021-01-12 22:05:46 GMT 40.809814 -103.495972 37,000 72 438 64
2021-01-12 22:05:40 GMT 40.806244 -103.510742 37,000 72 438 64
2021-01-12 22:05:35 GMT 40.803501 -103.522171 37,000 72 438 64
2021-01-12 22:05:29 GMT 40.800011 -103.536469 37,000 72 438 0
2021-01-12 22:05:25 GMT 40.797134 -103.548401 37,000 72 438 -64
2021-01-12 22:05:18 GMT 40.793446 -103.563431 37,000 72 438 -64
2021-01-12 22:05:14 GMT 40.790466 -103.575607 37,000 72 438 -64
2021-01-12 22:05:09 GMT 40.787022 -103.589836 37,000 72 438 0
2021-01-12 22:05:04 GMT 40.783810 -103.603134 37,000 72 439 -64
2021-01-12 22:04:56 GMT 40.779053 -103.622742 37,000 72 440 0
2021-01-12 22:04:53 GMT 40.777542 -103.628845 37,000 72 440 0
2021-01-12 22:04:47 GMT 40.773285 -103.646118 37,000 71 439 -128
2021-01-12 22:04:43 GMT 40.770821 -103.656067 37,025 71 439 -64
2021-01-12 22:04:36 GMT 40.766647 -103.673096 37,000 72 439 128
2021-01-12 22:04:32 GMT 40.764542 -103.681824 37,000 72 440 128
2021-01-12 22:04:29 GMT 40.762711 -103.689453 37,000 72 440 128
2021-01-12 22:04:25 GMT 40.759651 -103.701950 36,975 72 441 64
2021-01-12 22:04:22 GMT 40.757950 -103.708862 37,000 72 441 0
2021-01-12 22:04:17 GMT 40.754391 -103.723419 37,000 71 441 -64
2021-01-12 22:04:14 GMT 40.752686 -103.730286 37,000 71 440 -64
2021-01-12 22:04:11 GMT 40.751404 -103.735413 37,000 71 441 -128
2021-01-12 22:04:06 GMT 40.747032 -103.753014 37,000 71 440 -192
2021-01-12 22:04:02 GMT 40.745728 -103.758362 37,000 72 441 -192
2021-01-12 22:03:59 GMT 40.743439 -103.767517 37,025 72 441 0
2021-01-12 22:03:56 GMT 40.741333 -103.776184 37,025 72 441 -64
2021-01-12 22:03:53 GMT 40.739773 -103.782600 37,025 72 441 64
2021-01-12 22:03:49 GMT 40.737946 -103.789978 37,000 72 441 128
2021-01-12 22:03:44 GMT 40.734421 -103.804260 37,000 72 441 0
2021-01-12 22:03:40 GMT 40.731487 -103.816307 37,000 72 440 -64
2021-01-12 22:03:37 GMT 40.729717 -103.823425 37,025 72 440 0
2021-01-12 22:03:33 GMT 40.727005 -103.834351 37,025 72 440 0
2021-01-12 22:03:29 GMT 40.724854 -103.843018 37,000 71 439 0
2021-01-12 22:03:25 GMT 40.721695 -103.855713 37,000 71 439 64
2021-01-12 22:03:22 GMT 40.720184 -103.861816 37,000 71 439 64
2021-01-12 22:03:19 GMT 40.718357 -103.869179 37,000 71 439 64
2021-01-12 22:03:14 GMT 40.715149 -103.882141 37,000 71 439 0
2021-01-12 22:03:11 GMT 40.714005 -103.886719 37,000 71 439 0
2021-01-12 22:03:08 GMT 40.711716 -103.895874 37,000 71 439 64
2021-01-12 22:03:01 GMT 40.706905 -103.915436 37,000 71 439 0
2021-01-12 22:02:58 GMT 40.704941 -103.923279 37,000 71 439 0
2021-01-12 22:02:53 GMT 40.701599 -103.936783 37,000 71 438 0
2021-01-12 22:02:50 GMT 40.699829 -103.943832 37,000 71 438 -64
2021-01-12 22:02:41 GMT 40.694336 -103.966118 37,000 71 438 0
2021-01-12 22:02:38 GMT 40.693081 -103.971176 37,000 71 437 0
2021-01-12 22:02:32 GMT 40.688423 -103.989906 37,000 71 437 0
2021-01-12 22:02:29 GMT 40.686516 -103.997459 37,000 71 436 -64
2021-01-12 22:02:21 GMT 40.681999 -104.015617 37,000 71 436 -64
2021-01-12 22:02:18 GMT 40.680176 -104.022949 37,000 71 436 0
2021-01-12 22:02:11 GMT 40.675323 -104.042603 37,000 71 435 0
2021-01-12 22:02:08 GMT 40.673676 -104.049133 37,000 71 435 0
2021-01-12 22:02:00 GMT 40.668594 -104.069489 37,000 71 433 0
2021-01-12 22:01:57 GMT 40.667038 -104.075806 37,000 71 434 0
2021-01-12 22:01:50 GMT 40.662140 -104.095337 37,000 71 434 0
2021-01-12 22:01:46 GMT 40.660587 -104.101639 37,000 71 434 0
2021-01-12 22:01:40 GMT 40.656723 -104.117180 37,000 71 433 0
2021-01-12 22:01:37 GMT 40.654037 -104.127930 37,000 71 433 64
2021-01-12 22:01:31 GMT 40.650345 -104.142647 37,000 71 432 -64
2021-01-12 22:01:28 GMT 40.648773 -104.148926 37,000 71 432 -64
2021-01-12 22:01:25 GMT 40.646347 -104.158386 37,000 71 432 0
2021-01-12 22:01:20 GMT 40.643780 -104.168617 37,000 71 432 -64
2021-01-12 22:01:16 GMT 40.640942 -104.180107 37,000 71 432 -64
2021-01-12 22:01:08 GMT 40.636185 -104.199280 37,000 71 431 0
2021-01-12 22:01:05 GMT 40.634399 -104.206299 37,000 71 431 -64
2021-01-12 22:00:58 GMT 40.630371 -104.221619 37,000 70 431 128
2021-01-12 22:00:55 GMT 40.627350 -104.231873 37,000 66 429 0
2021-01-12 22:00:48 GMT 40.621437 -104.249832 37,000 64 429 0
2021-01-12 22:00:44 GMT 40.619293 -104.255737 37,000 64 429 -64
2021-01-12 22:00:37 GMT 40.612823 -104.273361 37,000 64 429 0
2021-01-12 22:00:33 GMT 40.610138 -104.280640 37,000 64 429 0
2021-01-12 22:00:28 GMT 40.605049 -104.294525 37,000 64 430 -64
2021-01-12 22:00:24 GMT 40.601898 -104.303223 37,000 64 430 0
2021-01-12 22:00:17 GMT 40.594158 -104.324112 37,000 64 431 64
2021-01-12 22:00:14 GMT 40.592434 -104.328857 37,000 64 431 64
2021-01-12 22:00:06 GMT 40.585190 -104.348328 37,000 64 431 0
2021-01-12 22:00:03 GMT 40.582474 -104.355637 37,000 64 431 0
2021-01-12 21:59:55 GMT 40.576492 -104.371948 37,000 64 432 0
2021-01-12 21:59:51 GMT 40.573334 -104.380432 37,000 64 432 0
2021-01-12 21:59:45 GMT 40.567245 -104.396912 37,000 64 432 0
2021-01-12 21:59:42 GMT 40.565060 -104.402824 37,000 64 432 0
2021-01-12 21:59:35 GMT 40.558182 -104.421509 37,000 64 432 0
2021-01-12 21:59:32 GMT 40.555893 -104.427673 37,000 64 433 -64
2021-01-12 21:59:23 GMT 40.548203 -104.448486 37,000 64 433 -64
2021-01-12 21:59:20 GMT 40.546463 -104.453186 37,000 64 433 -64
2021-01-12 21:59:14 GMT 40.539879 -104.470932 37,000 64 434 0
2021-01-12 21:59:11 GMT 40.537674 -104.476868 37,000 64 434 0
2021-01-12 21:59:02 GMT 40.529434 -104.499146 37,000 64 435 -64
2021-01-12 21:58:59 GMT 40.528099 -104.502701 37,000 64 435 -64
2021-01-12 21:58:53 GMT 40.521908 -104.519371 37,000 64 436 64
2021-01-12 21:58:50 GMT 40.518860 -104.527710 37,000 64 436 64
2021-01-12 21:58:43 GMT 40.513000 -104.543396 37,000 63 438 0
2021-01-12 21:58:40 GMT 40.510082 -104.551270 37,000 63 438 0
2021-01-12 21:58:36 GMT 40.506870 -104.559822 37,000 63 437 0
2021-01-12 21:58:32 GMT 40.499935 -104.578423 37,000 63 437 64
2021-01-12 21:58:29 GMT 40.499935 -104.578423 37,000 63 438 0
2021-01-12 21:58:26 GMT 40.497345 -104.585327 37,000 63 440 -64
2021-01-12 21:58:22 GMT 40.493820 -104.594910 37,000 64 439 0
2021-01-12 21:58:18 GMT 40.490936 -104.602539 37,000 64 440 -64
2021-01-12 21:58:15 GMT 40.488281 -104.609741 37,000 64 440 0
2021-01-12 21:58:12 GMT 40.485180 -104.618118 37,000 64 440 0
2021-01-12 21:58:09 GMT 40.482849 -104.624367 37,000 64 440 0
2021-01-12 21:58:06 GMT 40.481266 -104.628670 37,000 64 440 64
2021-01-12 21:58:01 GMT 40.475353 -104.644524 37,000 63 440 -64
2021-01-12 21:57:57 GMT 40.471958 -104.653641 37,000 63 440 -64
2021-01-12 21:57:53 GMT 40.468185 -104.663689 37,000 64 440 0
2021-01-12 21:57:49 GMT 40.465160 -104.671867 37,000 64 440 0
2021-01-12 21:57:46 GMT 40.462460 -104.679047 37,000 64 440 0
2021-01-12 21:57:41 GMT 40.454781 -104.699646 37,000 63 439 0
2021-01-12 21:57:38 GMT 40.454781 -104.699646 37,000 63 439 0
2021-01-12 21:57:34 GMT 40.451939 -104.707321 37,000 63 440 0
2021-01-12 21:57:30 GMT 40.447983 -104.717812 37,000 63 439 0
2021-01-12 21:57:27 GMT 40.444656 -104.726624 37,000 63 438 0
2021-01-12 21:57:23 GMT 40.441185 -104.735977 37,000 64 438 -64
2021-01-12 21:57:19 GMT 40.437561 -104.745728 37,025 64 437 -64
2021-01-12 21:57:16 GMT 40.435776 -104.750488 37,025 64 437 -64
2021-01-12 21:57:12 GMT 40.431644 -104.761688 37,025 64 436 0
2021-01-12 21:57:09 GMT 40.429874 -104.766434 37,000 64 436 64
2021-01-12 21:57:06 GMT 40.426575 -104.775269 37,000 64 436 128
2021-01-12 21:57:01 GMT 40.422100 -104.787346 37,000 63 435 64
2021-01-12 21:56:57 GMT 40.419586 -104.794029 37,000 63 435 0
2021-01-12 21:56:54 GMT 40.416870 -104.801331 37,000 63 434 -64
2021-01-12 21:56:48 GMT 40.408089 -104.824677 37,000 63 432 -64
2021-01-12 21:56:45 GMT 40.408089 -104.824677 37,025 63 432 -64
2021-01-12 21:56:42 GMT 40.405884 -104.830566 37,025 64 431 64
2021-01-12 21:56:38 GMT 40.401245 -104.843025 37,000 64 431 64
2021-01-12 21:56:34 GMT 40.399334 -104.848213 37,000 64 431 64
2021-01-12 21:56:29 GMT 40.394348 -104.861572 37,000 63 430 -64
2021-01-12 21:56:26 GMT 40.391739 -104.868591 37,000 63 429 0
2021-01-12 21:56:23 GMT 40.389633 -104.874207 37,000 63 428 0
2021-01-12 21:56:17 GMT 40.383087 -104.891655 37,000 63 426 192
2021-01-12 21:56:14 GMT 40.380569 -104.898376 36,975 63 426 256
2021-01-12 21:56:08 GMT 40.376221 -104.909912 36,975 63 424 64
2021-01-12 21:56:05 GMT 40.373360 -104.917564 36,975 63 423 -128
2021-01-12 21:56:02 GMT 40.371552 -104.922363 36,975 63 422 128
2021-01-12 21:55:56 GMT 40.365074 -104.939537 36,925 63 421 896
2021-01-12 21:55:53 GMT 40.362625 -104.946167 36,875 63 421 1152
2021-01-12 21:55:48 GMT 40.358418 -104.957382 36,775 64 422 1216
2021-01-12 21:55:45 GMT 40.355942 -104.964050 36,675 64 422 1216
2021-01-12 21:55:42 GMT 40.353790 -104.969788 36,650 64 423 1216
2021-01-12 21:55:37 GMT 40.349525 -104.981293 36,550 64 423 1216
2021-01-12 21:55:34 GMT 40.346779 -104.988724 36,500 64 424 1216
2021-01-12 21:55:31 GMT 40.344955 -104.993530 36,425 64 424 1280
2021-01-12 21:55:27 GMT 40.340469 -105.005554 36,300 63 425 1280
2021-01-12 21:55:24 GMT 40.337357 -105.013855 36,250 63 425 1280
2021-01-12 21:55:20 GMT 40.335114 -105.019836 36,175 63 426 1280
2021-01-12 21:55:16 GMT 40.330765 -105.031433 36,075 63 426 1280
2021-01-12 21:55:13 GMT 40.328949 -105.036285 36,025 63 426 1280
2021-01-12 21:55:10 GMT 40.326015 -105.044151 35,950 63 427 1344
2021-01-12 21:55:05 GMT 40.318222 -105.064819 35,800 63 428 1280
2021-01-12 21:55:02 GMT 40.318222 -105.064819 35,775 63 429 1280
2021-01-12 21:54:59 GMT 40.315868 -105.071121 35,700 63 429 1344
2021-01-12 21:54:55 GMT 40.313213 -105.078049 35,600 63 429 1280
2021-01-12 21:54:52 GMT 40.310421 -105.085541 35,525 63 430 1344
2021-01-12 21:54:49 GMT 40.306324 -105.096275 35,450 63 431 1280
2021-01-12 21:54:44 GMT 40.303532 -105.103706 35,300 63 431 1280
2021-01-12 21:54:41 GMT 40.299809 -105.113564 35,275 63 432 1152
2021-01-12 21:54:37 GMT 40.296524 -105.122192 35,225 63 432 1088
2021-01-12 21:54:33 GMT 40.294052 -105.128723 35,150 63 432 960
2021-01-12 21:54:30 GMT 40.286911 -105.147400 35,100 63 432 832
2021-01-12 21:54:26 GMT 40.286911 -105.147400 35,050 63 432 704
2021-01-12 21:54:22 GMT 40.283249 -105.157227 35,025 63 432 576
2021-01-12 21:54:19 GMT 40.280594 -105.164307 35,000 63 432 192
2021-01-12 21:54:14 GMT 40.276199 -105.176025 35,000 63 432 -64
2021-01-12 21:54:11 GMT 40.273972 -105.181854 35,000 63 432 0
2021-01-12 21:54:08 GMT 40.271393 -105.188660 35,000 63 432 -64
2021-01-12 21:54:04 GMT 40.266815 -105.200867 35,000 63 432 0
2021-01-12 21:54:00 GMT 40.259903 -105.219116 35,000 63 432 0
2021-01-12 21:53:56 GMT 40.259903 -105.219116 35,000 63 432 0
2021-01-12 21:53:53 GMT 40.257492 -105.225426 35,000 63 433 0
2021-01-12 21:53:50 GMT 40.255211 -105.231544 35,000 63 432 0
2021-01-12 21:53:47 GMT 40.252945 -105.237366 35,000 63 433 0
2021-01-12 21:53:41 GMT 40.247528 -105.251709 35,000 63 434 -64
2021-01-12 21:53:38 GMT 40.244690 -105.259201 35,000 63 434 -64
2021-01-12 21:53:30 GMT 40.237148 -105.278923 35,000 63 435 64
2021-01-12 21:53:27 GMT 40.234039 -105.287170 35,000 63 435 128
2021-01-12 21:53:22 GMT 40.229652 -105.298714 35,000 63 436 128
2021-01-12 21:53:19 GMT 40.227325 -105.304832 35,000 63 436 128
2021-01-12 21:53:16 GMT 40.224998 -105.311012 35,000 63 436 128
2021-01-12 21:53:10 GMT 40.219040 -105.326553 35,000 63 437 -64
2021-01-12 21:53:07 GMT 40.216896 -105.332230 35,000 63 438 -64
2021-01-12 21:53:00 GMT 40.210464 -105.349060 35,000 63 439 0
2021-01-12 21:52:56 GMT 40.207169 -105.357605 34,975 63 439 -64
2021-01-12 21:52:52 GMT 40.203629 -105.366814 35,000 63 440 -128
2021-01-12 21:52:48 GMT 40.196823 -105.384644 35,000 63 440 -64
2021-01-12 21:52:45 GMT 40.196823 -105.384644 35,000 63 440 -64
2021-01-12 21:52:40 GMT 40.192657 -105.395569 35,000 63 440 0
2021-01-12 21:52:37 GMT 40.188858 -105.405579 35,000 63 441 0
2021-01-12 21:52:34 GMT 40.187393 -105.409424 35,000 63 441 -64
2021-01-12 21:52:29 GMT 40.182449 -105.422302 35,025 63 442 -192
2021-01-12 21:52:26 GMT 40.179424 -105.430176 35,025 63 442 -192
2021-01-12 21:52:23 GMT 40.176678 -105.437355 35,025 63 442 -192
2021-01-12 21:52:19 GMT 40.169128 -105.457153 35,025 63 441 -64
2021-01-12 21:52:15 GMT 40.169128 -105.457153 35,025 63 441 0
2021-01-12 21:52:12 GMT 40.166428 -105.464294 35,025 63 440 0
2021-01-12 21:52:09 GMT 40.164154 -105.470314 35,025 63 440 0
2021-01-12 21:52:06 GMT 40.161777 -105.476486 35,000 63 440 0
2021-01-12 21:52:03 GMT 40.158829 -105.484314 35,000 63 438 0
2021-01-12 21:51:59 GMT 40.154846 -105.494751 35,025 63 435 64
2021-01-12 21:51:56 GMT 40.151676 -105.502960 35,025 63 435 64
2021-01-12 21:51:53 GMT 40.149395 -105.509140 35,025 63 435 64
2021-01-12 21:51:48 GMT 40.144741 -105.521309 35,000 63 433 256
2021-01-12 21:51:45 GMT 40.139648 -105.534607 34,975 63 431 192
2021-01-12 21:51:41 GMT 40.139648 -105.534607 34,975 63 431 128
2021-01-12 21:51:36 GMT 40.134033 -105.549210 34,975 63 428 192
2021-01-12 21:51:32 GMT 40.131008 -105.557076 34,950 63 427 256
2021-01-12 21:51:28 GMT 40.127098 -105.567192 34,925 63 425 512
2021-01-12 21:51:25 GMT 40.125595 -105.571106 34,925 63 425 512
2021-01-12 21:51:22 GMT 40.121658 -105.581116 34,850 63 424 1152
2021-01-12 21:51:17 GMT 40.114929 -105.598450 34,725 63 425 1344
2021-01-12 21:51:14 GMT 40.114929 -105.598450 34,675 63 424 1344
2021-01-12 21:51:10 GMT 40.112320 -105.605347 34,625 63 425 1344
2021-01-12 21:51:06 GMT 40.108292 -105.615906 34,500 63 426 1344
2021-01-12 21:51:03 GMT 40.105820 -105.622375 34,450 63 426 1344
2021-01-12 21:51:00 GMT 40.102524 -105.631104 34,350 63 426 1408
2021-01-12 21:50:56 GMT 40.099365 -105.639404 34,275 63 427 1408
2021-01-12 21:50:53 GMT 40.097076 -105.645386 34,200 63 427 1408
2021-01-12 21:50:50 GMT 40.093506 -105.654602 34,100 63 427 1408
2021-01-12 21:50:46 GMT 40.089668 -105.664505 34,000 63 427 1344
2021-01-12 21:50:43 GMT 40.087097 -105.671204 33,950 63 428 1344
2021-01-12 21:50:40 GMT 40.084690 -105.677429 33,875 63 428 1344
2021-01-12 21:50:34 GMT 40.079708 -105.690346 33,750 63 429 1344
2021-01-12 21:50:31 GMT 40.076683 -105.698212 33,675 63 429 1344
2021-01-12 21:50:28 GMT 40.074772 -105.703331 33,625 63 429 1344
2021-01-12 21:50:23 GMT 40.069519 -105.716980 32,825 63 430 1408
2021-01-12 21:50:20 GMT 40.066582 -105.724617 33,400 63 430 1408
2021-01-12 21:50:13 GMT 40.061413 -105.738106 33,275 63 431 1408
2021-01-12 21:50:10 GMT 40.056011 -105.752022 33,125 63 431 1344
2021-01-12 21:50:04 GMT 40.052940 -105.759888 33,050 63 432 1408
2021-01-12 21:50:01 GMT 40.050568 -105.765945 32,925 63 432 1344
2021-01-12 21:49:58 GMT 40.046795 -105.775681 32,875 63 432 1344
2021-01-12 21:49:54 GMT 40.043335 -105.784790 32,775 63 433 1344
2021-01-12 21:49:50 GMT 40.041069 -105.790596 32,750 63 433 1408
2021-01-12 21:49:47 GMT 40.037201 -105.800659 32,625 63 433 1408
2021-01-12 21:49:41 GMT 40.031250 -105.816101 32,475 63 434 1408
2021-01-12 21:49:38 GMT 40.029713 -105.820061 31,875 62 434 1344
2021-01-12 21:49:35 GMT 40.026825 -105.827492 32,375 63 434 1408
2021-01-12 21:49:32 GMT 40.023750 -105.835419 32,300 63 434 1408
2021-01-12 21:49:29 GMT 40.020172 -105.844482 32,200 63 435 1408
2021-01-12 21:49:26 GMT 40.018818 -105.848030 32,025 63 435 1408
2021-01-12 21:49:21 GMT 40.014542 -105.858948 32,025 63 434 1408
2021-01-12 21:49:18 GMT 40.010925 -105.868347 31,950 63 434 1408
2021-01-12 21:49:15 GMT 40.009460 -105.872070 31,925 63 434 1408
2021-01-12 21:49:12 GMT 40.006577 -105.879517 31,850 63 435 1408
2021-01-12 21:49:09 GMT 40.003281 -105.887939 31,750 63 435 1408
2021-01-12 21:49:04 GMT 39.999405 -105.898026 31,650 63 435 1408
2021-01-12 21:49:00 GMT 39.994473 -105.910637 31,500 63 436 1408
2021-01-12 21:48:57 GMT 39.992096 -105.916756 31,475 63 436 1408
2021-01-12 21:48:52 GMT 39.987209 -105.929367 31,350 63 436 1344
2021-01-12 21:48:48 GMT 39.984009 -105.937561 31,275 63 436 1280
2021-01-12 21:48:45 GMT 39.980713 -105.946045 31,200 63 436 1280
2021-01-12 21:48:38 GMT 39.975197 -105.960327 31,050 63 436 1344
2021-01-12 21:48:35 GMT 39.973068 -105.965698 31,000 63 436 1344
2021-01-12 21:48:32 GMT 39.968903 -105.976501 30,900 63 436 1280
2021-01-12 21:48:28 GMT 39.966587 -105.982361 30,825 63 437 1216
2021-01-12 21:48:25 GMT 39.963593 -105.990112 30,775 63 437 1152
2021-01-12 21:48:21 GMT 39.959648 -106.000153 30,675 63 437 1152
2021-01-12 21:48:18 GMT 39.955902 -106.009766 30,625 63 437 1152
2021-01-12 21:48:13 GMT 39.951508 -106.020996 30,525 63 436 1216
2021-01-12 21:48:10 GMT 39.946564 -106.033630 30,475 63 436 1280
2021-01-12 21:48:07 GMT 39.946564 -106.033630 30,400 63 436 1280
2021-01-12 21:48:03 GMT 39.942657 -106.043724 30,300 63 436 1344
2021-01-12 21:48:00 GMT 39.939789 -106.050964 30,225 63 436 1344
2021-01-12 21:47:57 GMT 39.937164 -106.057709 30,175 63 436 1408
2021-01-12 21:47:54 GMT 39.934792 -106.063820 30,100 63 436 1408
2021-01-12 21:47:50 GMT 39.931297 -106.072685 29,975 63 436 1472
2021-01-12 21:47:47 GMT 39.928482 -106.079895 29,925 63 436 1408
2021-01-12 21:47:44 GMT 39.925293 -106.088104 29,850 63 435 1408
2021-01-12 21:47:39 GMT 39.920609 -106.099983 29,725 62 435 1408
2021-01-12 21:47:36 GMT 39.918358 -106.105835 29,675 62 435 1344
2021-01-12 21:47:33 GMT 39.915710 -106.112587 29,625 62 434 1344
2021-01-12 21:47:30 GMT 39.912308 -106.121155 29,550 63 434 1280
2021-01-12 21:47:26 GMT 39.908676 -106.130493 29,450 63 433 1280
2021-01-12 21:47:23 GMT 39.906601 -106.135811 29,400 63 433 1280
2021-01-12 21:47:18 GMT 39.901886 -106.147934 29,300 63 433 1280
2021-01-12 21:47:13 GMT 39.896805 -106.160950 29,175 63 433 1280
2021-01-12 21:47:08 GMT 39.892822 -106.171158 29,075 63 432 1280
2021-01-12 21:47:05 GMT 39.889870 -106.178772 29,000 63 432 1280
2021-01-12 21:47:02 GMT 39.887604 -106.184593 28,950 63 431 1280
2021-01-12 21:46:57 GMT 39.882935 -106.196594 28,850 63 431 1280
2021-01-12 21:46:52 GMT 39.878136 -106.208862 28,725 63 431 1280
2021-01-12 21:46:49 GMT 39.874969 -106.216957 28,650 63 430 1280
2021-01-12 21:46:43 GMT 39.871170 -106.226631 28,550 63 430 1280
2021-01-12 21:46:40 GMT 39.866867 -106.237671 28,450 63 429 1216
2021-01-12 21:46:37 GMT 39.864449 -106.243896 28,400 63 429 1152
2021-01-12 21:46:31 GMT 39.858948 -106.257912 28,300 62 428 1216
2021-01-12 21:46:27 GMT 39.855606 -106.266357 28,200 63 427 1344
2021-01-12 21:46:20 GMT 39.846107 -106.290588 27,875 63 427 1728
2021-01-12 21:46:16 GMT 39.846107 -106.290588 27,925 63 427 1728
2021-01-12 21:46:07 GMT 39.837387 -106.312790 27,525 62 426 1728
2021-01-12 21:45:59 GMT 39.831165 -106.328491 27,475 62 426 1728
2021-01-12 21:45:55 GMT 39.828003 -106.336433 27,375 62 426 1856
2021-01-12 21:45:48 GMT 39.821388 -106.353088 27,150 62 427 1856
2021-01-12 21:45:45 GMT 39.818272 -106.360840 27,025 62 427 1856
2021-01-12 21:45:39 GMT 39.812313 -106.375916 26,825 62 428 1856
2021-01-12 21:45:34 GMT 39.808594 -106.385269 26,575 62 429 1728
2021-01-12 21:45:27 GMT 39.802673 -106.400208 26,500 62 428 1664
2021-01-12 21:45:18 GMT 39.793507 -106.423584 26,250 62 428 1472
2021-01-12 21:45:14 GMT 39.789360 -106.434082 26,125 62 428 1536
2021-01-12 21:45:08 GMT 39.785217 -106.444641 26,025 62 428 1600
2021-01-12 21:45:04 GMT 39.781128 -106.454895 25,900 62 427 1664
2021-01-12 21:44:59 GMT 39.775726 -106.468567 25,725 62 427 1728
2021-01-12 21:44:50 GMT 39.768539 -106.486839 25,500 62 426 1728
2021-01-12 21:44:47 GMT 39.766388 -106.492271 25,425 62 426 1728
2021-01-12 21:44:17 GMT 39.730278 -106.584167 24,300 61 416
2021-01-12 21:43:16 GMT 39.679722 -106.710831 22,700 46 406
2021-01-12 21:42:16 GMT 39.627220 -106.838890 20,800 28 400
2021-01-12 21:41:16 GMT 39.563610 -106.978889 18,800 7 371
2021-01-12 21:40:13 GMT 39.468056 -107.005836 17,800 2 325
2021-01-12 21:39:13 GMT 39.377499 -107.012779 16,100 357 285
2021-01-12 21:38:55 GMT 39.365833 -107.013336 15,800 328 274
2021-01-12 21:38:13 GMT 39.303333 -107.013611 14,300 296 239
2021-01-12 21:37:55 GMT 39.295555 -107.008614 13,900 295 242
2021-01-12 21:37:13 GMT 39.274445 -106.940002 11,600 305 225
2021-01-12 21:36:52 GMT 39.271111 -106.929443 11,200 301 222

Making use of Plane Finder data

You are free to use the raw flight data, aircraft information and images provided in this report for your own purposes provided the data is correctly attributed to Plane Finder. We ask that you please credit Plane Finder and link to planefinder.net in close proximity to the content.

Optionally one of the following logos (no smaller then 150x24px) can be used and must link to planefinder.net

Embedding the Plane Finder map

You are welcome to embed the Plane Finder playback map on your website to offer visitors a more interactive experience. We suggest using the following HTML code:

<iframe src="//planefinder.net/data/report/AA3292-N712SK-7700-squawk-2021-01-12/map" width="800" height="600" seamless="seamless"></iframe>

Where our data comes from

Plane Finder has a global network of data feeds and antenna radars that receive data broadcast directly from aircraft. The primary technologies used are ADS-B and MLAT. We also show feeds from the FAA and a FLARM glider feed.

Click here to find out more about the Plane Finder network.

How we collect our data